Queen Of Cowichan — CZ4990 — position and weather

sailwx.info

Track history (hours):
 
Tides and Currents Weather Stations Pressure Air Temp Water Temp Dewpoint Dewpoint Depression Visibility Wind Speed Wind Dir Waves Ship Positions

Queen Of Cowichan

Last reported at 2018-Feb-25 15:31 UTC. Time now 2018-Feb-25 15:59 UTC.
Position N 49°19' W 123°24'.

Length 139 m.

Type: Passenger vessel. MMSI: 316001251.

Date/timePositionNaut miles runAvg speedWind from/ knotsBaromVisibWave heightAir tempDewpointWater temp
2018-Feb-25 15:31N 49°19' W 123°24'918.4
2018-Feb-25 15:00N 49°15' W 123°38'1118.4
2018-Feb-25 14:23N 49°13' W 123°55'2 0.3
2018-Feb-25 07:47N 49°12' W 123°57'518.6
2018-Feb-25 07:31N 49°15' W 123°50'1019.4
2018-Feb-25 07:00N 49°18' W 123°36'1019.5
2018-Feb-25 06:30N 49°20' W 123°22'5 8.8
2018-Feb-25 05:59N 49°23' W 123°16'0 0.3
2018-Feb-25 05:30N 49°23' W 123°16'714.5
2018-Feb-25 05:00N 49°25' W 123°27'1 2.6
2018-Feb-25 04:30N 49°26' W 123°28'814.9
2018-Feb-25 03:59N 49°24' W 123°17'2 2.7
2018-Feb-25 03:25N 49°23' W 123°16'410.3
2018-Feb-25 03:00N 49°26' W 123°21'5 9.9
2018-Feb-25 02:30N 49°26' W 123°28'1 2.3
2018-Feb-25 02:00N 49°25' W 123°27'714.6
2018-Feb-25 01:30N 49°23' W 123°16'0 0.3
2018-Feb-25 01:00N 49°23' W 123°16'815.4
2018-Feb-25 00:30N 49°18' W 123°26'1019.4
2018-Feb-25 00:00N 49°16' W 123°40'7 4.2
2018-Feb-24 22:21N 49°14' W 123°50'619.0
2018-Feb-24 22:00N 49°16' W 123°41'1019.1
2018-Feb-24 21:30N 49°19' W 123°27'815.8
2018-Feb-24 21:00N 49°23' W 123°16'0 0.1
2018-Feb-24 20:28N 49°23' W 123°16'613.3
2018-Feb-24 20:00N 49°19' W 123°24'918.3
2018-Feb-24 19:31N 49°16' W 123°37'1218.3
2018-Feb-24 18:52N 49°13' W 123°54'2 3.9
2018-Feb-24 18:15N 49°12' W 123°57'2 8.5
2018-Feb-24 18:00N 49°13' W 123°55'918.4
2018-Feb-24 17:30N 49°16' W 123°42'918.6
2018-Feb-24 17:00N 49°19' W 123°28'917.5
2018-Feb-24 16:30N 49°23' W 123°17'1 1.3
2018-Feb-24 15:59N 49°23' W 123°16'714.9
2018-Feb-24 15:30N 49°18' W 123°25'918.3
2018-Feb-24 15:00N 49°15' W 123°38'13 1.8
2018-Feb-24 07:55N 49°12' W 123°57'716.6
2018-Feb-24 07:29N 49°15' W 123°48'918.4
2018-Feb-24 07:00N 49°17' W 123°35'917.7
2018-Feb-24 06:30N 49°20' W 123°22'5 8.6
2018-Feb-24 05:58N 49°23' W 123°16'1 1.1
2018-Feb-24 05:30N 49°23' W 123°16'815.1
2018-Feb-24 04:59N 49°26' W 123°27'1 1.1
2018-Feb-24 04:30N 49°26' W 123°28'715.0
2018-Feb-24 04:00N 49°24' W 123°17'2 3.0
2018-Feb-24 03:23N 49°23' W 123°16'512.2
2018-Feb-24 03:00N 49°25' W 123°22'4 8.6
2018-Feb-24 02:30N 49°26' W 123°28'2 3.4
2018-Feb-24 02:00N 49°25' W 123°26'7 7.0
2018-Feb-24 01:02N 49°23' W 123°16'0 4.2
2018-Feb-24 01:00N 49°23' W 123°16'815.2
2018-Feb-24 00:30N 49°18' W 123°26'1019.3
2018-Feb-24 00:00N 49°16' W 123°40'11 8.4
2018-Feb-23 22:41N 49°12' W 123°56'318.6
2018-Feb-23 22:30N 49°14' W 123°52'816.6
2018-Feb-23 22:01N 49°17' W 123°40'1019.4
2018-Feb-23 21:29N 49°19' W 123°25'713.4
2018-Feb-23 20:59N 49°23' W 123°16'0 0.0
2018-Feb-23 20:30N 49°23' W 123°16'5 9.3
2018-Feb-23 20:00N 49°19' W 123°22'1019.2
2018-Feb-23 19:30N 49°16' W 123°36'1019.2
2018-Feb-23 19:00N 49°14' W 123°50'5 5.3
2018-Feb-23 18:02N 49°12' W 123°57'318.0
2018-Feb-23 17:52N 49°14' W 123°53'719.5
2018-Feb-23 17:31N 49°16' W 123°43'1019.4
2018-Feb-23 17:01N 49°18' W 123°29'918.4
2018-Feb-23 16:31N 49°23' W 123°17'1 1.1
2018-Feb-23 15:59N 49°23' W 123°16'613.2
2018-Feb-23 15:30N 49°19' W 123°24'1019.4
2018-Feb-23 15:00N 49°16' W 123°39'1119.4
2018-Feb-23 14:28N 49°13' W 123°54'3 0.5
2018-Feb-23 08:42N 49°12' W 123°57'0 0.0
2018-Feb-23 08:06N 49°12' W 123°57'0 0.5
2018-Feb-23 07:53N 49°12' W 123°57'816.7
2018-Feb-23 07:26N 49°15' W 123°47'818.6
2018-Feb-23 07:00N 49°17' W 123°35'918.6
2018-Feb-23 06:31N 49°20' W 123°22'5 8.8
2018-Feb-23 06:00N 49°23' W 123°16'0 0.9
2018-Feb-23 05:30N 49°23' W 123°16'816.5
2018-Feb-23 05:00N 49°26' W 123°28'0 0.2
2018-Feb-23 04:31N 49°26' W 123°28'713.6
2018-Feb-23 03:59N 49°24' W 123°17'2 2.4
2018-Feb-23 03:16N 49°23' W 123°16'414.9
2018-Feb-23 02:59N 49°26' W 123°21'510.4
2018-Feb-23 02:30N 49°26' W 123°28'2 3.7
2018-Feb-23 02:00N 49°25' W 123°26'713.8
2018-Feb-23 01:30N 49°23' W 123°16'0 1.0
2018-Feb-23 01:00N 49°23' W 123°16'917.2
2018-Feb-23 00:31N 49°18' W 123°27'1019.0
2018-Feb-23 00:00N 49°16' W 123°41'11 8.4
2018-Feb-22 22:39N 49°12' W 123°57'817.3
2018-Feb-22 22:10N 49°15' W 123°46'419.5
2018-Feb-22 21:59N 49°16' W 123°40'919.5
2018-Feb-22 21:30N 49°19' W 123°27'815.3
2018-Feb-22 21:00N 49°23' W 123°16'0 0.1
2018-Feb-22 20:30N 49°23' W 123°16'510.4
2018-Feb-22 20:00N 49°19' W 123°22'1018.7
2018-Feb-22 19:30N 49°16' W 123°36'14 9.8
2018-Feb-22 18:02N 49°12' W 123°57'318.1
2018-Feb-22 17:53N 49°14' W 123°53'719.5
2018-Feb-22 17:30N 49°16' W 123°43'1019.5
2018-Feb-22 17:00N 49°18' W 123°28'918.1
2018-Feb-22 16:31N 49°23' W 123°17'1 1.8
2018-Feb-22 16:00N 49°23' W 123°16'612.7
2018-Feb-22 15:30N 49°19' W 123°24'1019.4
2018-Feb-22 15:00N 49°15' W 123°38'1219.3
2018-Feb-22 14:22N 49°13' W 123°56'1 0.2
2018-Feb-22 07:53N 49°12' W 123°57'717.4
2018-Feb-22 07:28N 49°15' W 123°47'918.8
2018-Feb-22 07:00N 49°17' W 123°35'918.8
2018-Feb-22 06:30N 49°20' W 123°21'4 7.5
2018-Feb-22 06:00N 49°23' W 123°16'0 0.4
2018-Feb-22 05:31N 49°23' W 123°16'815.6
2018-Feb-22 05:00N 49°26' W 123°27'0 0.9
2018-Feb-22 04:29N 49°26' W 123°28'714.8
2018-Feb-22 04:00N 49°25' W 123°17'2 3.4
2018-Feb-22 03:19N 49°23' W 123°16'412.5
2018-Feb-22 03:00N 49°26' W 123°20'510.7
2018-Feb-22 02:30N 49°26' W 123°28'3 6.3
2018-Feb-22 02:00N 49°25' W 123°24'6 7.2
2018-Feb-22 01:14N 49°23' W 123°16'24 8.5
2018-Feb-21 22:25N 49°14' W 123°51'819.4
2018-Feb-21 22:00N 49°17' W 123°39'1019.6
2018-Feb-21 21:30N 49°19' W 123°25'612.1
2018-Feb-21 20:59N 49°23' W 123°16'0 0.0
2018-Feb-21 20:30N 49°23' W 123°16'510.7
2018-Feb-21 20:00N 49°20' W 123°23'918.7
2018-Feb-21 19:30N 49°16' W 123°37'14 9.2
2018-Feb-21 17:57N 49°12' W 123°57'919.2
2018-Feb-21 17:29N 49°16' W 123°44'1020.3
2018-Feb-21 17:00N 49°18' W 123°30'1019.2
2018-Feb-21 16:30N 49°23' W 123°17'1 1.4
2018-Feb-21 15:58N 49°23' W 123°16'613.5
2018-Feb-21 15:31N 49°19' W 123°24'1019.4
2018-Feb-21 14:59N 49°16' W 123°39'1019.7
2018-Feb-21 14:27N 49°13' W 123°54'2 0.3
2018-Feb-21 07:51N 49°12' W 123°57'719.0
2018-Feb-21 07:29N 49°15' W 123°47'919.6
2018-Feb-21 07:01N 49°18' W 123°34'1019.1
2018-Feb-21 06:31N 49°21' W 123°20'3 3.2
2018-Feb-21 05:37N 49°23' W 123°16'0 3.1
2018-Feb-21 05:30N 49°23' W 123°16'815.2
2018-Feb-21 05:00N 49°26' W 123°27'1 1.6
2018-Feb-21 04:30N 49°26' W 123°28'714.5
2018-Feb-21 04:00N 49°24' W 123°17'2 2.8
2018-Feb-21 03:21N 49°23' W 123°16'411.9
2018-Feb-21 03:00N 49°26' W 123°21'5 9.8
2018-Feb-21 02:30N 49°26' W 123°28'3 5.7
2018-Feb-21 02:00N 49°25' W 123°24'6 6.4
2018-Feb-21 01:06N 49°23' W 123°16'0 5.3
2018-Feb-21 01:00N 49°23' W 123°16'816.7
2018-Feb-21 00:30N 49°18' W 123°27'1019.0
2018-Feb-21 00:00N 49°16' W 123°41'11 8.1
2018-Feb-20 22:36N 49°12' W 123°57'818.1
2018-Feb-20 22:10N 49°15' W 123°46'319.8
2018-Feb-20 22:00N 49°16' W 123°42'1019.6
2018-Feb-20 21:30N 49°19' W 123°27'815.6
2018-Feb-20 20:59N 49°23' W 123°16'0 0.1
2018-Feb-20 20:27N 49°23' W 123°16'510.5
2018-Feb-20 20:00N 49°20' W 123°22'1019.2
2018-Feb-20 19:30N 49°16' W 123°36'14 9.0
2018-Feb-20 17:56N 49°12' W 123°57'819.8
2018-Feb-20 17:31N 49°16' W 123°45'1020.1
2018-Feb-20 17:01N 49°18' W 123°30'1019.1
2018-Feb-20 16:30N 49°23' W 123°17'1 1.5
2018-Feb-20 16:00N 49°23' W 123°16'612.1
2018-Feb-20 15:31N 49°19' W 123°24'1019.3
2018-Feb-20 15:00N 49°16' W 123°38'8 1.1
2018-Feb-20 07:30N 49°14' W 123°51'1019.9
2018-Feb-20 07:00N 49°18' W 123°36'1020.1
2018-Feb-20 06:30N 49°20' W 123°21'4 8.7
2018-Feb-20 06:00N 49°23' W 123°16'2 3.3
2018-Feb-20 05:30N 49°24' W 123°17'814.9
2018-Feb-20 05:00N 49°26' W 123°28'0 0.6
2018-Feb-20 04:30N 49°26' W 123°28'714.2
2018-Feb-20 03:59N 49°24' W 123°17'2 2.6
2018-Feb-20 03:17N 49°23' W 123°16'413.9
2018-Feb-20 03:00N 49°26' W 123°20'510.5
2018-Feb-20 02:30N 49°26' W 123°28'3 4.9
2018-Feb-20 01:58N 49°25' W 123°24'6 7.1
2018-Feb-20 01:07N 49°23' W 123°16'0 3.3
2018-Feb-20 01:00N 49°23' W 123°16'816.7
2018-Feb-20 00:30N 49°18' W 123°27'1019.3
2018-Feb-20 00:00N 49°16' W 123°41'8 5.1
2018-Feb-19 22:26N 49°14' W 123°53'819.4
2018-Feb-19 22:00N 49°17' W 123°41'1019.5
2018-Feb-19 21:30N 49°19' W 123°26'814.5
2018-Feb-19 20:59N 49°23' W 123°16'0 0.1
2018-Feb-19 20:29N 49°23' W 123°16'713.8
2018-Feb-19 20:00N 49°19' W 123°24'1019.2
2018-Feb-19 19:30N 49°16' W 123°38'1310.5
2018-Feb-19 18:16N 49°12' W 123°57'611.5
2018-Feb-19 17:45N 49°15' W 123°50'519.5
2018-Feb-19 17:30N 49°16' W 123°42'1019.5
2018-Feb-19 17:00N 49°19' W 123°28'917.9
2018-Feb-19 16:31N 49°23' W 123°16'1 1.0
2018-Feb-19 16:00N 49°23' W 123°16'613.1
2018-Feb-19 15:30N 49°19' W 123°24'1019.4
2018-Feb-19 15:00N 49°16' W 123°39'12 1.8
2018-Feb-19 07:52N 49°12' W 123°57'818.0
2018-Feb-19 07:26N 49°15' W 123°46'818.0
2018-Feb-19 07:00N 49°17' W 123°35'917.9
2018-Feb-19 06:30N 49°20' W 123°21'4 8.4
2018-Feb-19 05:59N 49°23' W 123°16'1 2.9
2018-Feb-19 05:31N 49°24' W 123°16'714.2
2018-Feb-19 05:01N 49°25' W 123°27'1 2.1
2018-Feb-19 04:30N 49°26' W 123°28'714.1
2018-Feb-19 04:00N 49°25' W 123°17'2 2.9
2018-Feb-19 03:16N 49°23' W 123°16'414.1
2018-Feb-19 02:59N 49°25' W 123°21'510.1
2018-Feb-19 02:30N 49°26' W 123°28'3 5.0
2018-Feb-19 01:59N 49°25' W 123°25'6 7.5
2018-Feb-19 01:11N 49°23' W 123°16'1 5.7
2018-Feb-19 01:00N 49°23' W 123°18'917.8
2018-Feb-19 00:30N 49°18' W 123°29'1019.7
2018-Feb-18 23:59N 49°15' W 123°44'7 4.8
2018-Feb-18 22:37N 49°13' W 123°54'220.2
2018-Feb-18 22:30N 49°14' W 123°51'1020.5
2018-Feb-18 22:00N 49°18' W 123°36'1020.5
2018-Feb-18 21:30N 49°20' W 123°21'4 7.2
2018-Feb-18 20:59N 49°23' W 123°16'0 0.6
2018-Feb-18 20:30N 49°23' W 123°16'714.8
2018-Feb-18 20:00N 49°18' W 123°25'1019.2
2018-Feb-18 19:30N 49°16' W 123°39'7 3.9
2018-Feb-18 17:49N 49°15' W 123°49'720.5
2018-Feb-18 17:29N 49°17' W 123°39'1020.6
2018-Feb-18 17:00N 49°19' W 123°24'612.0
2018-Feb-18 16:29N 49°23' W 123°16'1 2.4
2018-Feb-18 16:01N 49°23' W 123°18'918.0
2018-Feb-18 15:30N 49°18' W 123°28'1019.5
2018-Feb-18 15:00N 49°15' W 123°43'6 0.9
2018-Feb-18 07:37N 49°14' W 123°52'319.1
2018-Feb-18 07:26N 49°15' W 123°48'819.0
2018-Feb-18 07:00N 49°17' W 123°35'918.9
2018-Feb-18 06:30N 49°19' W 123°21'5 9.2
2018-Feb-18 06:01N 49°23' W 123°16'1 2.8
2018-Feb-18 05:30N 49°24' W 123°16'714.5
2018-Feb-18 04:59N 49°26' W 123°27'0 0.9
2018-Feb-18 04:30N 49°26' W 123°28'714.2
2018-Feb-18 04:00N 49°25' W 123°17'2 3.6
2018-Feb-18 03:21N 49°23' W 123°16'411.9
2018-Feb-18 03:00N 49°25' W 123°21'5 9.5
2018-Feb-18 02:30N 49°26' W 123°28'3 5.8
2018-Feb-18 01:56N 49°25' W 123°23'512.1
2018-Feb-18 01:30N 49°23' W 123°16'1 1.1
2018-Feb-18 01:00N 49°23' W 123°17'917.7
2018-Feb-18 00:30N 49°18' W 123°27'918.4
2018-Feb-18 00:00N 49°15' W 123°41'11 7.9
2018-Feb-17 22:35N 49°12' W 123°57'719.0
2018-Feb-17 22:13N 49°15' W 123°47'419.5
2018-Feb-17 22:00N 49°16' W 123°41'1019.5
2018-Feb-17 21:30N 49°19' W 123°27'815.1
2018-Feb-17 20:59N 49°23' W 123°16'0 0.0
2018-Feb-17 20:29N 49°23' W 123°16'5 9.6
2018-Feb-17 20:00N 49°19' W 123°21'1019.5
2018-Feb-17 19:30N 49°17' W 123°36'14 9.3
2018-Feb-17 17:57N 49°12' W 123°57'1020.0
2018-Feb-17 17:27N 49°17' W 123°43'920.3
2018-Feb-17 17:00N 49°18' W 123°30'919.1
2018-Feb-17 16:31N 49°23' W 123°17'1 1.4
2018-Feb-17 15:59N 49°23' W 123°16'612.9
2018-Feb-17 15:31N 49°19' W 123°23'1019.4
2018-Feb-17 15:00N 49°16' W 123°38'1219.3
2018-Feb-17 14:23N 49°13' W 123°56'2 0.2
2018-Feb-17 07:56N 49°12' W 123°57'816.6
2018-Feb-17 07:27N 49°15' W 123°46'818.1
2018-Feb-17 07:00N 49°18' W 123°34'918.1
2018-Feb-17 06:30N 49°20' W 123°21'4 4.6
2018-Feb-17 05:37N 49°23' W 123°16'214.0
2018-Feb-17 05:31N 49°24' W 123°16'714.0
2018-Feb-17 05:00N 49°26' W 123°27'1 1.6
2018-Feb-17 04:30N 49°26' W 123°28'714.4
2018-Feb-17 04:00N 49°24' W 123°17'2 2.7
2018-Feb-17 03:21N 49°23' W 123°16'412.3
2018-Feb-17 02:59N 49°25' W 123°21'5 7.2
2018-Feb-17 02:21N 49°26' W 123°28'2 4.9
2018-Feb-17 02:00N 49°25' W 123°26'7 9.7
2018-Feb-17 01:18N 49°23' W 123°16'0 0.7
2018-Feb-17 01:00N 49°23' W 123°16'816.2
2018-Feb-17 00:30N 49°18' W 123°27'1018.9
2018-Feb-17 00:00N 49°16' W 123°41'1018.9
2018-Feb-16 23:28N 49°13' W 123°55'1 1.6
2018-Feb-16 22:37N 49°12' W 123°57'818.8
2018-Feb-16 22:13N 49°15' W 123°47'419.4
2018-Feb-16 22:00N 49°17' W 123°41'1019.5
2018-Feb-16 21:30N 49°19' W 123°26'714.8
2018-Feb-16 21:00N 49°23' W 123°16'0 0.0
2018-Feb-16 20:28N 49°23' W 123°16'511.6
2018-Feb-16 20:00N 49°19' W 123°22'1020.1
2018-Feb-16 19:30N 49°16' W 123°37'14 9.0
2018-Feb-16 17:59N 49°12' W 123°57'919.3
2018-Feb-16 17:30N 49°16' W 123°44'1020.2
2018-Feb-16 17:00N 49°18' W 123°30'919.0
2018-Feb-16 16:30N 49°23' W 123°17'1 1.5
2018-Feb-16 15:59N 49°23' W 123°16'713.3
2018-Feb-16 15:30N 49°18' W 123°24'1019.4
2018-Feb-16 15:00N 49°16' W 123°38'13 1.9
2018-Feb-16 07:54N 49°12' W 123°57'717.6
2018-Feb-16 07:30N 49°15' W 123°47'918.0
2018-Feb-16 06:59N 49°18' W 123°34'918.1
2018-Feb-16 06:30N 49°20' W 123°21'4 7.8
2018-Feb-16 05:59N 49°23' W 123°16'1 1.5
2018-Feb-16 05:30N 49°23' W 123°16'714.5
2018-Feb-16 05:00N 49°25' W 123°27'1 2.1
2018-Feb-16 04:30N 49°26' W 123°28'714.2
2018-Feb-16 04:01N 49°25' W 123°17'2 3.2
2018-Feb-16 03:18N 49°23' W 123°16'412.9
2018-Feb-16 02:59N 49°26' W 123°21'5 9.5
2018-Feb-16 02:28N 49°26' W 123°28'2 5.1
2018-Feb-16 02:00N 49°25' W 123°25'6 6.9
2018-Feb-16 01:05N 49°23' W 123°16'1 7.0
2018-Feb-16 01:00N 49°23' W 123°16'917.2
2018-Feb-16 00:30N 49°18' W 123°27'918.4
2018-Feb-16 00:00N 49°16' W 123°41'1 0.5
2018-Feb-15 22:01N 49°17' W 123°42'019.8
2018-Feb-15 22:00N 49°17' W 123°41'919.5
2018-Feb-15 21:31N 49°19' W 123°27'8 7.1
2018-Feb-15 20:22N 49°23' W 123°16'615.5
2018-Feb-15 20:00N 49°19' W 123°23'1020.1
2018-Feb-15 19:30N 49°16' W 123°37'14 9.1
2018-Feb-15 18:00N 49°12' W 123°57'917.8
2018-Feb-15 17:29N 49°16' W 123°45'1020.4
2018-Feb-15 17:00N 49°18' W 123°30'1019.4
2018-Feb-15 16:30N 49°23' W 123°17'1 1.6
2018-Feb-15 15:59N 49°23' W 123°16'  
Track history (hours):
 
Tides and Currents Weather Stations Pressure Air Temp Water Temp Dewpoint Dewpoint Depression Visibility Wind Speed Wind Dir Waves Ship Positions

Queen Of Cowichan

Last reported at 2018-Feb-25 15:31 UTC. Time now 2018-Feb-25 15:59 UTC.
Position N 49°19' W 123°24'.

Length 139 m.

Type: Passenger vessel. MMSI: 316001251.

Date/timePositionNaut miles runAvg speedWind from/ knotsBaromVisibWave heightAir tempDewpointWater temp
2018-Feb-25 15:31N 49°19' W 123°24'918.4
2018-Feb-25 15:00N 49°15' W 123°38'1118.4
2018-Feb-25 14:23N 49°13' W 123°55'2 0.3
2018-Feb-25 07:47N 49°12' W 123°57'518.6
2018-Feb-25 07:31N 49°15' W 123°50'1019.4
2018-Feb-25 07:00N 49°18' W 123°36'1019.5
2018-Feb-25 06:30N 49°20' W 123°22'5 8.8
2018-Feb-25 05:59N 49°23' W 123°16'0 0.3
2018-Feb-25 05:30N 49°23' W 123°16'714.5
2018-Feb-25 05:00N 49°25' W 123°27'1 2.6
2018-Feb-25 04:30N 49°26' W 123°28'814.9
2018-Feb-25 03:59N 49°24' W 123°17'2 2.7
2018-Feb-25 03:25N 49°23' W 123°16'410.3
2018-Feb-25 03:00N 49°26' W 123°21'5 9.9
2018-Feb-25 02:30N 49°26' W 123°28'1 2.3
2018-Feb-25 02:00N 49°25' W 123°27'714.6
2018-Feb-25 01:30N 49°23' W 123°16'0 0.3
2018-Feb-25 01:00N 49°23' W 123°16'815.4
2018-Feb-25 00:30N 49°18' W 123°26'1019.4
2018-Feb-25 00:00N 49°16' W 123°40'7 4.2
2018-Feb-24 22:21N 49°14' W 123°50'619.0
2018-Feb-24 22:00N 49°16' W 123°41'1019.1
2018-Feb-24 21:30N 49°19' W 123°27'815.8
2018-Feb-24 21:00N 49°23' W 123°16'0 0.1
2018-Feb-24 20:28N 49°23' W 123°16'613.3
2018-Feb-24 20:00N 49°19' W 123°24'918.3
2018-Feb-24 19:31N 49°16' W 123°37'1218.3
2018-Feb-24 18:52N 49°13' W 123°54'2 3.9
2018-Feb-24 18:15N 49°12' W 123°57'2 8.5
2018-Feb-24 18:00N 49°13' W 123°55'918.4
2018-Feb-24 17:30N 49°16' W 123°42'918.6
2018-Feb-24 17:00N 49°19' W 123°28'917.5
2018-Feb-24 16:30N 49°23' W 123°17'1 1.3
2018-Feb-24 15:59N 49°23' W 123°16'714.9
2018-Feb-24 15:30N 49°18' W 123°25'918.3
2018-Feb-24 15:00N 49°15' W 123°38'13 1.8
2018-Feb-24 07:55N 49°12' W 123°57'716.6
2018-Feb-24 07:29N 49°15' W 123°48'918.4
2018-Feb-24 07:00N 49°17' W 123°35'917.7
2018-Feb-24 06:30N 49°20' W 123°22'5 8.6
2018-Feb-24 05:58N 49°23' W 123°16'1 1.1
2018-Feb-24 05:30N 49°23' W 123°16'815.1
2018-Feb-24 04:59N 49°26' W 123°27'1 1.1
2018-Feb-24 04:30N 49°26' W 123°28'715.0
2018-Feb-24 04:00N 49°24' W 123°17'2 3.0
2018-Feb-24 03:23N 49°23' W 123°16'512.2
2018-Feb-24 03:00N 49°25' W 123°22'4 8.6
2018-Feb-24 02:30N 49°26' W 123°28'2 3.4
2018-Feb-24 02:00N 49°25' W 123°26'7 7.0
2018-Feb-24 01:02N 49°23' W 123°16'0 4.2
2018-Feb-24 01:00N 49°23' W 123°16'815.2
2018-Feb-24 00:30N 49°18' W 123°26'1019.3
2018-Feb-24 00:00N 49°16' W 123°40'11 8.4
2018-Feb-23 22:41N 49°12' W 123°56'318.6
2018-Feb-23 22:30N 49°14' W 123°52'816.6
2018-Feb-23 22:01N 49°17' W 123°40'1019.4
2018-Feb-23 21:29N 49°19' W 123°25'713.4
2018-Feb-23 20:59N 49°23' W 123°16'0 0.0
2018-Feb-23 20:30N 49°23' W 123°16'5 9.3
2018-Feb-23 20:00N 49°19' W 123°22'1019.2
2018-Feb-23 19:30N 49°16' W 123°36'1019.2
2018-Feb-23 19:00N 49°14' W 123°50'5 5.3
2018-Feb-23 18:02N 49°12' W 123°57'318.0
2018-Feb-23 17:52N 49°14' W 123°53'719.5
2018-Feb-23 17:31N 49°16' W 123°43'1019.4
2018-Feb-23 17:01N 49°18' W 123°29'918.4
2018-Feb-23 16:31N 49°23' W 123°17'1 1.1
2018-Feb-23 15:59N 49°23' W 123°16'613.2
2018-Feb-23 15:30N 49°19' W 123°24'1019.4
2018-Feb-23 15:00N 49°16' W 123°39'1119.4
2018-Feb-23 14:28N 49°13' W 123°54'3 0.5
2018-Feb-23 08:42N 49°12' W 123°57'0 0.0
2018-Feb-23 08:06N 49°12' W 123°57'0 0.5
2018-Feb-23 07:53N 49°12' W 123°57'816.7
2018-Feb-23 07:26N 49°15' W 123°47'818.6
2018-Feb-23 07:00N 49°17' W 123°35'918.6
2018-Feb-23 06:31N 49°20' W 123°22'5 8.8
2018-Feb-23 06:00N 49°23' W 123°16'0 0.9
2018-Feb-23 05:30N 49°23' W 123°16'816.5
2018-Feb-23 05:00N 49°26' W 123°28'0 0.2
2018-Feb-23 04:31N 49°26' W 123°28'713.6
2018-Feb-23 03:59N 49°24' W 123°17'2 2.4
2018-Feb-23 03:16N 49°23' W 123°16'414.9
2018-Feb-23 02:59N 49°26' W 123°21'510.4
2018-Feb-23 02:30N 49°26' W 123°28'2 3.7
2018-Feb-23 02:00N 49°25' W 123°26'713.8
2018-Feb-23 01:30N 49°23' W 123°16'0 1.0
2018-Feb-23 01:00N 49°23' W 123°16'917.2
2018-Feb-23 00:31N 49°18' W 123°27'1019.0
2018-Feb-23 00:00N 49°16' W 123°41'11 8.4
2018-Feb-22 22:39N 49°12' W 123°57'817.3
2018-Feb-22 22:10N 49°15' W 123°46'419.5
2018-Feb-22 21:59N 49°16' W 123°40'919.5
2018-Feb-22 21:30N 49°19' W 123°27'815.3
2018-Feb-22 21:00N 49°23' W 123°16'0 0.1
2018-Feb-22 20:30N 49°23' W 123°16'510.4
2018-Feb-22 20:00N 49°19' W 123°22'1018.7
2018-Feb-22 19:30N 49°16' W 123°36'14 9.8
2018-Feb-22 18:02N 49°12' W 123°57'318.1
2018-Feb-22 17:53N 49°14' W 123°53'719.5
2018-Feb-22 17:30N 49°16' W 123°43'1019.5
2018-Feb-22 17:00N 49°18' W 123°28'918.1
2018-Feb-22 16:31N 49°23' W 123°17'1 1.8
2018-Feb-22 16:00N 49°23' W 123°16'612.7
2018-Feb-22 15:30N 49°19' W 123°24'1019.4
2018-Feb-22 15:00N 49°15' W 123°38'1219.3
2018-Feb-22 14:22N 49°13' W 123°56'1 0.2
2018-Feb-22 07:53N 49°12' W 123°57'717.4
2018-Feb-22 07:28N 49°15' W 123°47'918.8
2018-Feb-22 07:00N 49°17' W 123°35'918.8
2018-Feb-22 06:30N 49°20' W 123°21'4 7.5
2018-Feb-22 06:00N 49°23' W 123°16'0 0.4
2018-Feb-22 05:31N 49°23' W 123°16'815.6
2018-Feb-22 05:00N 49°26' W 123°27'0 0.9
2018-Feb-22 04:29N 49°26' W 123°28'714.8
2018-Feb-22 04:00N 49°25' W 123°17'2 3.4
2018-Feb-22 03:19N 49°23' W 123°16'412.5
2018-Feb-22 03:00N 49°26' W 123°20'510.7
2018-Feb-22 02:30N 49°26' W 123°28'3 6.3
2018-Feb-22 02:00N 49°25' W 123°24'6 7.2
2018-Feb-22 01:14N 49°23' W 123°16'24 8.5
2018-Feb-21 22:25N 49°14' W 123°51'819.4
2018-Feb-21 22:00N 49°17' W 123°39'1019.6
2018-Feb-21 21:30N 49°19' W 123°25'612.1
2018-Feb-21 20:59N 49°23' W 123°16'0 0.0
2018-Feb-21 20:30N 49°23' W 123°16'510.7
2018-Feb-21 20:00N 49°20' W 123°23'918.7
2018-Feb-21 19:30N 49°16' W 123°37'14 9.2
2018-Feb-21 17:57N 49°12' W 123°57'919.2
2018-Feb-21 17:29N 49°16' W 123°44'1020.3
2018-Feb-21 17:00N 49°18' W 123°30'1019.2
2018-Feb-21 16:30N 49°23' W 123°17'1 1.4
2018-Feb-21 15:58N 49°23' W 123°16'613.5
2018-Feb-21 15:31N 49°19' W 123°24'1019.4
2018-Feb-21 14:59N 49°16' W 123°39'1019.7
2018-Feb-21 14:27N 49°13' W 123°54'2 0.3
2018-Feb-21 07:51N 49°12' W 123°57'719.0
2018-Feb-21 07:29N 49°15' W 123°47'919.6
2018-Feb-21 07:01N 49°18' W 123°34'1019.1
2018-Feb-21 06:31N 49°21' W 123°20'3 3.2
2018-Feb-21 05:37N 49°23' W 123°16'0 3.1
2018-Feb-21 05:30N 49°23' W 123°16'815.2
2018-Feb-21 05:00N 49°26' W 123°27'1 1.6
2018-Feb-21 04:30N 49°26' W 123°28'714.5
2018-Feb-21 04:00N 49°24' W 123°17'2 2.8
2018-Feb-21 03:21N 49°23' W 123°16'411.9
2018-Feb-21 03:00N 49°26' W 123°21'5 9.8
2018-Feb-21 02:30N 49°26' W 123°28'3 5.7
2018-Feb-21 02:00N 49°25' W 123°24'6 6.4
2018-Feb-21 01:06N 49°23' W 123°16'0 5.3
2018-Feb-21 01:00N 49°23' W 123°16'816.7
2018-Feb-21 00:30N 49°18' W 123°27'1019.0
2018-Feb-21 00:00N 49°16' W 123°41'11 8.1
2018-Feb-20 22:36N 49°12' W 123°57'818.1
2018-Feb-20 22:10N 49°15' W 123°46'319.8
2018-Feb-20 22:00N 49°16' W 123°42'1019.6
2018-Feb-20 21:30N 49°19' W 123°27'815.6
2018-Feb-20 20:59N 49°23' W 123°16'0 0.1
2018-Feb-20 20:27N 49°23' W 123°16'510.5
2018-Feb-20 20:00N 49°20' W 123°22'1019.2
2018-Feb-20 19:30N 49°16' W 123°36'14 9.0
2018-Feb-20 17:56N 49°12' W 123°57'819.8
2018-Feb-20 17:31N 49°16' W 123°45'1020.1
2018-Feb-20 17:01N 49°18' W 123°30'1019.1
2018-Feb-20 16:30N 49°23' W 123°17'1 1.5
2018-Feb-20 16:00N 49°23' W 123°16'612.1
2018-Feb-20 15:31N 49°19' W 123°24'1019.3
2018-Feb-20 15:00N 49°16' W 123°38'8 1.1
2018-Feb-20 07:30N 49°14' W 123°51'1019.9
2018-Feb-20 07:00N 49°18' W 123°36'1020.1
2018-Feb-20 06:30N 49°20' W 123°21'4 8.7
2018-Feb-20 06:00N 49°23' W 123°16'2 3.3
2018-Feb-20 05:30N 49°24' W 123°17'814.9
2018-Feb-20 05:00N 49°26' W 123°28'0 0.6
2018-Feb-20 04:30N 49°26' W 123°28'714.2
2018-Feb-20 03:59N 49°24' W 123°17'2 2.6
2018-Feb-20 03:17N 49°23' W 123°16'413.9
2018-Feb-20 03:00N 49°26' W 123°20'510.5
2018-Feb-20 02:30N 49°26' W 123°28'3 4.9
2018-Feb-20 01:58N 49°25' W 123°24'6 7.1
2018-Feb-20 01:07N 49°23' W 123°16'0 3.3
2018-Feb-20 01:00N 49°23' W 123°16'816.7
2018-Feb-20 00:30N 49°18' W 123°27'1019.3
2018-Feb-20 00:00N 49°16' W 123°41'8 5.1
2018-Feb-19 22:26N 49°14' W 123°53'819.4
2018-Feb-19 22:00N 49°17' W 123°41'1019.5
2018-Feb-19 21:30N 49°19' W 123°26'814.5
2018-Feb-19 20:59N 49°23' W 123°16'0 0.1
2018-Feb-19 20:29N 49°23' W 123°16'713.8
2018-Feb-19 20:00N 49°19' W 123°24'1019.2
2018-Feb-19 19:30N 49°16' W 123°38'1310.5
2018-Feb-19 18:16N 49°12' W 123°57'611.5
2018-Feb-19 17:45N 49°15' W 123°50'519.5
2018-Feb-19 17:30N 49°16' W 123°42'1019.5
2018-Feb-19 17:00N 49°19' W 123°28'917.9
2018-Feb-19 16:31N 49°23' W 123°16'1 1.0
2018-Feb-19 16:00N 49°23' W 123°16'613.1
2018-Feb-19 15:30N 49°19' W 123°24'1019.4
2018-Feb-19 15:00N 49°16' W 123°39'12 1.8
2018-Feb-19 07:52N 49°12' W 123°57'818.0
2018-Feb-19 07:26N 49°15' W 123°46'818.0
2018-Feb-19 07:00N 49°17' W 123°35'917.9
2018-Feb-19 06:30N 49°20' W 123°21'4 8.4
2018-Feb-19 05:59N 49°23' W 123°16'1 2.9
2018-Feb-19 05:31N 49°24' W 123°16'714.2
2018-Feb-19 05:01N 49°25' W 123°27'1 2.1
2018-Feb-19 04:30N 49°26' W 123°28'714.1
2018-Feb-19 04:00N 49°25' W 123°17'2 2.9
2018-Feb-19 03:16N 49°23' W 123°16'414.1
2018-Feb-19 02:59N 49°25' W 123°21'510.1
2018-Feb-19 02:30N 49°26' W 123°28'3 5.0
2018-Feb-19 01:59N 49°25' W 123°25'6 7.5
2018-Feb-19 01:11N 49°23' W 123°16'1 5.7
2018-Feb-19 01:00N 49°23' W 123°18'917.8
2018-Feb-19 00:30N 49°18' W 123°29'1019.7
2018-Feb-18 23:59N 49°15' W 123°44'7 4.8
2018-Feb-18 22:37N 49°13' W 123°54'220.2
2018-Feb-18 22:30N 49°14' W 123°51'1020.5
2018-Feb-18 22:00N 49°18' W 123°36'1020.5
2018-Feb-18 21:30N 49°20' W 123°21'4 7.2
2018-Feb-18 20:59N 49°23' W 123°16'0 0.6
2018-Feb-18 20:30N 49°23' W 123°16'714.8
2018-Feb-18 20:00N 49°18' W 123°25'1019.2
2018-Feb-18 19:30N 49°16' W 123°39'7 3.9
2018-Feb-18 17:49N 49°15' W 123°49'720.5
2018-Feb-18 17:29N 49°17' W 123°39'1020.6
2018-Feb-18 17:00N 49°19' W 123°24'612.0
2018-Feb-18 16:29N 49°23' W 123°16'1 2.4
2018-Feb-18 16:01N 49°23' W 123°18'918.0
2018-Feb-18 15:30N 49°18' W 123°28'1019.5
2018-Feb-18 15:00N 49°15' W 123°43'6 0.9
2018-Feb-18 07:37N 49°14' W 123°52'319.1
2018-Feb-18 07:26N 49°15' W 123°48'819.0
2018-Feb-18 07:00N 49°17' W 123°35'918.9
2018-Feb-18 06:30N 49°19' W 123°21'5 9.2
2018-Feb-18 06:01N 49°23' W 123°16'1 2.8
2018-Feb-18 05:30N 49°24' W 123°16'714.5
2018-Feb-18 04:59N 49°26' W 123°27'0 0.9
2018-Feb-18 04:30N 49°26' W 123°28'714.2
2018-Feb-18 04:00N 49°25' W 123°17'2 3.6
2018-Feb-18 03:21N 49°23' W 123°16'411.9
2018-Feb-18 03:00N 49°25' W 123°21'5 9.5
2018-Feb-18 02:30N 49°26' W 123°28'3 5.8
2018-Feb-18 01:56N 49°25' W 123°23'512.1
2018-Feb-18 01:30N 49°23' W 123°16'1 1.1
2018-Feb-18 01:00N 49°23' W 123°17'917.7
2018-Feb-18 00:30N 49°18' W 123°27'918.4
2018-Feb-18 00:00N 49°15' W 123°41'11 7.9
2018-Feb-17 22:35N 49°12' W 123°57'719.0
2018-Feb-17 22:13N 49°15' W 123°47'419.5
2018-Feb-17 22:00N 49°16' W 123°41'1019.5
2018-Feb-17 21:30N 49°19' W 123°27'815.1
2018-Feb-17 20:59N 49°23' W 123°16'0 0.0
2018-Feb-17 20:29N 49°23' W 123°16'5 9.6
2018-Feb-17 20:00N 49°19' W 123°21'1019.5
2018-Feb-17 19:30N 49°17' W 123°36'14 9.3
2018-Feb-17 17:57N 49°12' W 123°57'1020.0
2018-Feb-17 17:27N 49°17' W 123°43'920.3
2018-Feb-17 17:00N 49°18' W 123°30'919.1
2018-Feb-17 16:31N 49°23' W 123°17'1 1.4
2018-Feb-17 15:59N 49°23' W 123°16'612.9
2018-Feb-17 15:31N 49°19' W 123°23'1019.4
2018-Feb-17 15:00N 49°16' W 123°38'1219.3
2018-Feb-17 14:23N 49°13' W 123°56'2 0.2
2018-Feb-17 07:56N 49°12' W 123°57'816.6
2018-Feb-17 07:27N 49°15' W 123°46'818.1
2018-Feb-17 07:00N 49°18' W 123°34'918.1
2018-Feb-17 06:30N 49°20' W 123°21'4 4.6
2018-Feb-17 05:37N 49°23' W 123°16'214.0
2018-Feb-17 05:31N 49°24' W 123°16'714.0
2018-Feb-17 05:00N 49°26' W 123°27'1 1.6
2018-Feb-17 04:30N 49°26' W 123°28'714.4
2018-Feb-17 04:00N 49°24' W 123°17'2 2.7
2018-Feb-17 03:21N 49°23' W 123°16'412.3
2018-Feb-17 02:59N 49°25' W 123°21'5 7.2
2018-Feb-17 02:21N 49°26' W 123°28'2 4.9
2018-Feb-17 02:00N 49°25' W 123°26'7 9.7
2018-Feb-17 01:18N 49°23' W 123°16'0 0.7
2018-Feb-17 01:00N 49°23' W 123°16'816.2
2018-Feb-17 00:30N 49°18' W 123°27'1018.9
2018-Feb-17 00:00N 49°16' W 123°41'1018.9
2018-Feb-16 23:28N 49°13' W 123°55'1 1.6
2018-Feb-16 22:37N 49°12' W 123°57'818.8
2018-Feb-16 22:13N 49°15' W 123°47'419.4
2018-Feb-16 22:00N 49°17' W 123°41'1019.5
2018-Feb-16 21:30N 49°19' W 123°26'714.8
2018-Feb-16 21:00N 49°23' W 123°16'0 0.0
2018-Feb-16 20:28N 49°23' W 123°16'511.6
2018-Feb-16 20:00N 49°19' W 123°22'1020.1
2018-Feb-16 19:30N 49°16' W 123°37'14 9.0
2018-Feb-16 17:59N 49°12' W 123°57'919.3
2018-Feb-16 17:30N 49°16' W 123°44'1020.2
2018-Feb-16 17:00N 49°18' W 123°30'919.0
2018-Feb-16 16:30N 49°23' W 123°17'1 1.5
2018-Feb-16 15:59N 49°23' W 123°16'713.3
2018-Feb-16 15:30N 49°18' W 123°24'1019.4
2018-Feb-16 15:00N 49°16' W 123°38'13 1.9
2018-Feb-16 07:54N 49°12' W 123°57'717.6
2018-Feb-16 07:30N 49°15' W 123°47'918.0
2018-Feb-16 06:59N 49°18' W 123°34'918.1
2018-Feb-16 06:30N 49°20' W 123°21'4 7.8
2018-Feb-16 05:59N 49°23' W 123°16'1 1.5
2018-Feb-16 05:30N 49°23' W 123°16'714.5
2018-Feb-16 05:00N 49°25' W 123°27'1 2.1
2018-Feb-16 04:30N 49°26' W 123°28'714.2
2018-Feb-16 04:01N 49°25' W 123°17'2 3.2
2018-Feb-16 03:18N 49°23' W 123°16'412.9
2018-Feb-16 02:59N 49°26' W 123°21'5 9.5
2018-Feb-16 02:28N 49°26' W 123°28'2 5.1
2018-Feb-16 02:00N 49°25' W 123°25'6 6.9
2018-Feb-16 01:05N 49°23' W 123°16'1 7.0
2018-Feb-16 01:00N 49°23' W 123°16'917.2
2018-Feb-16 00:30N 49°18' W 123°27'918.4
2018-Feb-16 00:00N 49°16' W 123°41'1 0.5
2018-Feb-15 22:01N 49°17' W 123°42'019.8
2018-Feb-15 22:00N 49°17' W 123°41'919.5
2018-Feb-15 21:31N 49°19' W 123°27'8 7.1
2018-Feb-15 20:22N 49°23' W 123°16'615.5
2018-Feb-15 20:00N 49°19' W 123°23'1020.1
2018-Feb-15 19:30N 49°16' W 123°37'14 9.1
2018-Feb-15 18:00N 49°12' W 123°57'917.8
2018-Feb-15 17:29N 49°16' W 123°45'1020.4
2018-Feb-15 17:00N 49°18' W 123°30'1019.4
2018-Feb-15 16:30N 49°23' W 123°17'1 1.6
2018-Feb-15 15:59N 49°23' W 123°16'  

Dump ship's entire track history